createdAt,value
2018-06-04T00:02:39.937Z,16.00
2018-06-04T00:05:45.510Z,15.97
2018-06-04T00:08:50.566Z,15.93
2018-06-04T00:11:55.612Z,15.92
2018-06-04T00:15:00.813Z,15.86
2018-06-04T00:18:05.901Z,15.82
2018-06-04T00:21:10.961Z,15.80
2018-06-04T00:24:16.612Z,15.76
2018-06-04T00:27:22.684Z,15.73
2018-06-04T00:30:28.225Z,15.72
2018-06-04T00:33:33.397Z,15.70
2018-06-04T00:36:38.441Z,15.69
2018-06-04T00:39:43.252Z,15.67
2018-06-04T00:42:48.758Z,15.67
2018-06-04T00:45:54.864Z,15.62
2018-06-04T00:49:00.473Z,15.60
2018-06-04T00:52:05.924Z,15.58
2018-06-04T00:55:11.429Z,15.56
2018-06-04T00:58:16.648Z,15.54
2018-06-04T01:01:21.720Z,15.53
2018-06-04T01:04:26.841Z,15.54
2018-06-04T01:07:31.916Z,15.49
2018-06-04T01:10:37.981Z,15.50
2018-06-04T01:13:43.068Z,15.46
2018-06-04T01:16:49.097Z,15.42
2018-06-04T01:19:58.264Z,15.48
2018-06-04T01:23:03.713Z,15.41
2018-06-04T01:26:08.788Z,15.40
2018-06-04T01:29:14.020Z,15.44
2018-06-04T01:32:19.757Z,15.41
2018-06-04T01:35:24.869Z,15.37
2018-06-04T01:38:30.032Z,15.37
2018-06-04T01:41:35.158Z,15.42
2018-06-04T01:44:41.136Z,15.46
2018-06-04T01:47:47.881Z,15.48
2018-06-04T01:50:52.977Z,15.51
2018-06-04T01:53:57.796Z,15.53
2018-06-04T01:57:03.611Z,15.55
2018-06-04T02:00:09.383Z,15.64
2018-06-04T02:03:15.858Z,15.62
2018-06-04T02:06:21.487Z,15.62
2018-06-04T02:09:27.360Z,15.72
2018-06-04T02:12:33.460Z,15.78
2018-06-04T02:15:38.964Z,15.80
2018-06-04T02:18:44.853Z,15.87
2018-06-04T02:21:49.915Z,15.90
2018-06-04T02:24:54.994Z,15.89
2018-06-04T02:28:00.585Z,15.83
2018-06-04T02:31:06.615Z,15.85
2018-06-04T02:34:11.730Z,15.84
2018-06-04T02:37:17.000Z,15.92
2018-06-04T02:40:22.150Z,15.95
2018-06-04T02:43:28.496Z,16.01
2018-06-04T02:46:33.586Z,16.07
2018-06-04T02:49:39.401Z,16.08
2018-06-04T02:52:44.474Z,16.14
2018-06-04T02:55:49.561Z,16.15
2018-06-04T02:58:55.150Z,16.18
2018-06-04T03:02:00.569Z,16.18
2018-06-04T03:05:06.013Z,16.21
2018-06-04T03:08:11.935Z,16.22
2018-06-04T03:11:17.002Z,16.24
2018-06-04T03:14:22.108Z,16.25
2018-06-04T03:17:28.265Z,16.25
2018-06-04T03:20:33.355Z,16.25
2018-06-04T03:23:39.381Z,16.27
2018-06-04T03:26:44.442Z,16.26
2018-06-04T03:29:49.573Z,16.29
2018-06-04T03:32:54.658Z,16.32
2018-06-04T03:36:00.103Z,16.31
2018-06-04T03:39:08.185Z,16.31
2018-06-04T03:42:14.945Z,16.29
2018-06-04T03:45:20.037Z,16.30
2018-06-04T03:48:25.518Z,16.31
2018-06-04T03:51:31.094Z,16.32
2018-06-04T03:54:36.154Z,16.33
2018-06-04T03:57:41.678Z,16.34
2018-06-04T04:00:47.677Z,16.34
2018-06-04T04:03:53.681Z,16.36
2018-06-04T04:06:58.769Z,16.36
2018-06-04T04:10:04.266Z,16.36
2018-06-04T04:13:09.363Z,16.39
2018-06-04T04:16:14.526Z,16.41
2018-06-04T04:19:20.743Z,16.43
2018-06-04T04:22:26.118Z,16.45
2018-06-04T04:25:31.220Z,16.46
2018-06-04T04:28:37.230Z,16.48
2018-06-04T04:31:43.231Z,16.49
2018-06-04T04:34:49.267Z,16.51
2018-06-04T04:37:54.361Z,16.52
2018-06-04T04:40:59.461Z,16.52
2018-06-04T04:44:05.755Z,16.53
2018-06-04T04:47:10.770Z,16.55
2018-06-04T04:50:16.602Z,16.56
2018-06-04T04:53:21.711Z,16.57
2018-06-04T04:56:26.779Z,16.58
2018-06-04T04:59:32.503Z,16.60
2018-06-04T05:02:37.853Z,16.60
2018-06-04T05:05:43.223Z,16.61
2018-06-04T05:08:50.230Z,16.62
2018-06-04T05:11:56.458Z,16.62
2018-06-04T05:15:02.257Z,16.63
2018-06-04T05:18:07.374Z,16.65
2018-06-04T05:21:12.460Z,16.66
2018-06-04T05:24:17.842Z,16.67
2018-06-04T05:27:24.002Z,16.68
2018-06-04T05:30:29.506Z,16.68
2018-06-04T05:33:34.593Z,16.70
2018-06-04T05:36:39.661Z,16.72
2018-06-04T05:39:44.805Z,16.73
2018-06-04T05:42:49.633Z,16.72
2018-06-04T05:45:55.020Z,16.75
2018-06-04T05:49:00.125Z,16.76
2018-06-04T05:52:05.445Z,16.76
2018-06-04T05:55:10.522Z,16.77
2018-06-04T05:58:16.022Z,16.78
2018-06-04T06:01:23.063Z,16.79
2018-06-04T06:04:28.162Z,16.81
2018-06-04T06:07:34.299Z,16.82
2018-06-04T06:10:39.397Z,16.84
2018-06-04T06:13:44.473Z,16.85
2018-06-04T06:16:50.106Z,16.87
2018-06-04T06:19:55.245Z,16.87
2018-06-04T06:23:00.319Z,16.90
2018-06-04T06:26:05.603Z,16.90
2018-06-04T06:29:11.579Z,16.91
2018-06-04T06:32:16.639Z,16.93
2018-06-04T06:35:21.713Z,16.94
2018-06-04T06:38:27.584Z,16.95
2018-06-04T06:41:33.560Z,16.98
2018-06-04T06:44:38.665Z,16.98
2018-06-04T06:47:43.454Z,16.99
2018-06-04T06:50:48.920Z,17.00
2018-06-04T06:53:54.011Z,17.02
2018-06-04T06:56:59.113Z,17.04
2018-06-04T07:00:04.738Z,17.06
2018-06-04T07:03:09.848Z,17.08
2018-06-04T07:06:15.307Z,17.11
2018-06-04T07:09:21.094Z,17.13
2018-06-04T07:12:26.972Z,17.17
2018-06-04T07:15:32.074Z,17.21
2018-06-04T07:18:37.158Z,17.23
2018-06-04T07:21:42.277Z,17.25
2018-06-04T07:24:47.517Z,17.26
2018-06-04T07:27:52.614Z,17.29
2018-06-04T07:30:58.080Z,17.32
2018-06-04T07:34:04.191Z,17.34
2018-06-04T07:37:09.695Z,17.37
2018-06-04T07:40:14.785Z,17.38
2018-06-04T07:43:19.898Z,17.42
2018-06-04T07:46:25.092Z,17.45
2018-06-04T07:49:31.001Z,17.48
2018-06-04T07:52:36.081Z,17.49
2018-06-04T07:55:41.394Z,17.54
2018-06-04T07:58:46.501Z,17.54
2018-06-04T08:01:51.910Z,17.56
2018-06-04T08:04:56.997Z,17.57
2018-06-04T08:08:02.112Z,17.57
2018-06-04T08:11:07.252Z,17.59
2018-06-04T08:14:12.038Z,17.59
2018-06-04T08:17:17.650Z,17.60
2018-06-04T08:20:22.762Z,17.61
2018-06-04T08:23:27.591Z,17.61
2018-06-04T08:26:33.188Z,17.62
2018-06-04T08:29:39.527Z,17.63
2018-06-04T08:32:45.521Z,17.62
2018-06-04T08:35:51.451Z,17.64
2018-06-04T08:38:57.441Z,17.65
2018-06-04T08:42:02.576Z,17.64
2018-06-04T08:45:07.714Z,17.64
2018-06-04T08:48:12.845Z,17.64
2018-06-04T08:51:17.943Z,17.65
2018-06-04T08:54:23.022Z,17.64
2018-06-04T08:57:28.820Z,17.66
2018-06-04T09:00:35.719Z,17.65
2018-06-04T09:03:41.794Z,17.65
2018-06-04T09:06:46.925Z,17.65
2018-06-04T09:09:52.781Z,17.62
2018-06-04T09:12:58.670Z,17.63
2018-06-04T09:16:03.837Z,17.64
2018-06-04T09:19:08.931Z,17.64
2018-06-04T09:22:14.036Z,17.66
2018-06-04T09:25:20.055Z,17.66
2018-06-04T09:28:26.041Z,17.66
2018-06-04T09:31:31.169Z,17.66
2018-06-04T09:34:36.237Z,17.67
2018-06-04T09:37:41.352Z,17.68
2018-06-04T09:40:46.638Z,17.67
2018-06-04T09:43:51.709Z,17.68
2018-06-04T09:46:57.201Z,17.69
2018-06-04T09:50:03.214Z,17.70
2018-06-04T09:53:09.435Z,17.71
2018-06-04T09:56:16.347Z,17.74
2018-06-04T09:59:21.626Z,17.75
2018-06-04T10:02:26.886Z,17.76
2018-06-04T10:05:32.030Z,17.77
2018-06-04T10:08:37.767Z,17.77
2018-06-04T10:11:42.727Z,17.79
2018-06-04T10:14:48.821Z,17.80
2018-06-04T10:17:57.378Z,17.81
2018-06-04T10:21:03.696Z,17.83
2018-06-04T10:24:08.789Z,17.84
2018-06-04T10:27:13.874Z,17.86
2018-06-04T10:30:19.149Z,17.87
2018-06-04T10:33:24.213Z,17.88
2018-06-04T10:36:29.335Z,17.91
2018-06-04T10:39:34.416Z,17.92
2018-06-04T10:42:39.958Z,17.94
2018-06-04T10:45:45.649Z,17.95
2018-06-04T10:48:51.097Z,17.97
2018-06-04T10:51:56.178Z,17.98
2018-06-04T10:55:02.254Z,18.00
2018-06-04T10:58:07.660Z,18.01
2018-06-04T11:01:12.728Z,18.06
2018-06-04T11:04:17.798Z,18.06
2018-06-04T11:07:23.620Z,18.06
2018-06-04T11:10:28.714Z,18.07
2018-06-04T11:13:33.792Z,18.07
2018-06-04T11:16:40.469Z,18.09
2018-06-04T11:19:47.181Z,18.08
2018-06-04T11:22:54.088Z,18.09
2018-06-04T11:25:59.610Z,18.10
2018-06-04T11:29:05.514Z,18.11
2018-06-04T11:32:11.310Z,18.12
2018-06-04T11:35:17.415Z,18.13
2018-06-04T11:38:23.171Z,18.15
2018-06-04T11:41:29.081Z,18.16
2018-06-04T11:44:34.170Z,18.18
2018-06-04T11:47:39.697Z,18.18
2018-06-04T11:50:45.621Z,18.20
2018-06-04T11:53:50.698Z,18.22
2018-06-04T11:56:55.756Z,18.23
2018-06-04T12:00:03.033Z,18.24
2018-06-04T12:03:08.539Z,18.27
2018-06-04T12:06:13.647Z,18.27
2018-06-04T12:09:19.481Z,18.31
2018-06-04T12:12:25.544Z,18.32
2018-06-04T12:15:31.525Z,18.35
2018-06-04T12:18:36.593Z,18.36
2018-06-04T12:21:41.698Z,18.39
2018-06-04T12:24:47.673Z,18.41
2018-06-04T12:27:52.472Z,18.42
2018-06-04T12:30:59.300Z,18.44
2018-06-04T12:34:04.413Z,18.45
2018-06-04T12:37:09.887Z,18.46
2018-06-04T12:40:15.908Z,18.46
2018-06-04T12:43:22.018Z,18.48
2018-06-04T12:46:27.686Z,18.48
2018-06-04T12:49:33.713Z,18.49
2018-06-04T12:52:39.293Z,18.51
2018-06-04T12:55:44.390Z,18.52
2018-06-04T12:58:50.400Z,18.54
2018-06-04T13:01:56.401Z,18.53
2018-06-04T13:05:02.421Z,18.55
2018-06-04T13:08:08.555Z,18.54
2018-06-04T13:11:13.629Z,18.55
2018-06-04T13:14:19.237Z,18.57
2018-06-04T13:17:24.328Z,18.58
2018-06-04T13:20:29.694Z,18.58
2018-06-04T13:23:34.526Z,18.60
2018-06-04T13:26:41.148Z,18.61
2018-06-04T13:29:47.470Z,18.63
2018-06-04T13:32:52.569Z,18.64
2018-06-04T13:35:57.693Z,18.64
2018-06-04T13:39:02.796Z,18.65
2018-06-04T13:42:09.775Z,18.67
2018-06-04T13:45:14.897Z,18.67
2018-06-04T13:48:19.980Z,18.69
2018-06-04T13:51:25.578Z,18.71
2018-06-04T13:54:31.082Z,18.73
2018-06-04T13:57:36.781Z,18.74
2018-06-04T14:00:42.285Z,18.76
2018-06-04T14:03:47.400Z,18.77
2018-06-04T14:06:53.180Z,18.81
2018-06-04T14:09:59.325Z,18.82
2018-06-04T14:13:05.161Z,18.85
2018-06-04T14:16:10.873Z,18.88
2018-06-04T14:19:16.315Z,18.90
2018-06-04T14:22:22.961Z,18.93
2018-06-04T14:25:30.692Z,18.97
2018-06-04T14:28:37.302Z,18.99
2018-06-04T14:31:42.797Z,19.01
2018-06-04T14:34:50.142Z,19.05
2018-06-04T14:37:55.990Z,19.06
2018-06-04T14:41:01.124Z,19.08
2018-06-04T14:44:06.527Z,19.10
2018-06-04T14:47:11.621Z,19.13
2018-06-04T14:50:17.520Z,19.14
2018-06-04T14:53:23.461Z,19.16
2018-06-04T14:56:29.508Z,19.19
2018-06-04T14:59:34.744Z,19.22
2018-06-04T15:02:40.856Z,19.26
2018-06-04T15:05:45.971Z,19.30
2018-06-04T15:08:51.481Z,19.32
2018-06-04T15:11:56.683Z,19.35
2018-06-04T15:15:02.790Z,19.36
2018-06-04T15:18:07.906Z,19.36
2018-06-04T15:21:27.471Z,19.40
2018-06-04T15:24:32.589Z,19.40
2018-06-04T15:27:37.710Z,19.42
2018-06-04T15:30:43.731Z,19.43
2018-06-04T15:33:49.566Z,19.45
2018-06-04T15:36:55.382Z,19.47
2018-06-04T15:40:00.505Z,19.48
2018-06-04T15:43:06.529Z,19.49
2018-06-04T15:46:12.369Z,19.50
2018-06-04T15:49:18.189Z,19.50
2018-06-04T15:52:23.708Z,19.50
2018-06-04T15:55:29.740Z,19.51
2018-06-04T15:58:35.206Z,19.51
2018-06-04T16:01:41.689Z,19.53
2018-06-04T16:04:46.851Z,19.51
2018-06-04T16:07:52.080Z,19.53
2018-06-04T16:10:56.890Z,19.51
2018-06-04T16:14:01.745Z,19.50
2018-06-04T16:17:06.638Z,19.50
2018-06-04T16:20:12.236Z,19.50
2018-06-04T16:23:18.420Z,19.50
2018-06-04T16:26:24.433Z,19.48
2018-06-04T16:29:30.480Z,19.46
2018-06-04T16:32:36.929Z,19.47
2018-06-04T16:35:42.757Z,19.48
2018-06-04T16:38:48.811Z,19.45
2018-06-04T16:41:54.381Z,19.45
2018-06-04T16:44:59.555Z,19.42
2018-06-04T16:48:06.177Z,19.40
2018-06-04T16:51:11.749Z,19.39
2018-06-04T16:54:16.845Z,19.37
2018-06-04T16:57:22.346Z,19.34
2018-06-04T17:00:28.458Z,19.31
2018-06-04T17:03:33.646Z,19.29
2018-06-04T17:06:38.778Z,19.28
2018-06-04T17:09:43.917Z,19.26
2018-06-04T17:12:49.084Z,19.24
2018-06-04T17:15:54.247Z,19.21
2018-06-04T17:18:59.346Z,19.20
2018-06-04T17:22:05.473Z,19.18
2018-06-04T17:25:10.593Z,19.16
2018-06-04T17:28:16.416Z,19.15
2018-06-04T17:31:21.868Z,19.13
2018-06-04T17:34:27.850Z,19.11
2018-06-04T17:37:34.332Z,19.08
2018-06-04T17:40:40.522Z,19.05
2018-06-04T17:43:46.290Z,19.02
2018-06-04T17:46:52.495Z,18.99
2018-06-04T17:49:58.392Z,18.96
2018-06-04T17:53:03.504Z,18.93
2018-06-04T17:56:09.700Z,18.92
2018-06-04T17:59:17.629Z,18.90
2018-06-04T18:02:23.499Z,18.87
2018-06-04T18:05:28.626Z,18.84
2018-06-04T18:08:34.777Z,18.82
2018-06-04T18:11:39.945Z,18.79
2018-06-04T18:14:45.073Z,18.77
2018-06-04T18:17:50.445Z,18.75
2018-06-04T18:20:55.614Z,18.72
2018-06-04T18:24:01.866Z,18.68
2018-06-04T18:27:07.540Z,18.65
2018-06-04T18:30:12.745Z,18.63
2018-06-04T18:33:18.851Z,18.61
2018-06-04T18:36:23.974Z,18.56
2018-06-04T18:39:29.068Z,18.53
2018-06-04T18:42:34.726Z,18.49
2018-06-04T18:45:40.819Z,18.47
2018-06-04T18:48:46.013Z,18.42
2018-06-04T18:51:52.196Z,18.38
2018-06-04T18:54:57.638Z,18.35
2018-06-04T18:58:02.764Z,18.32
2018-06-04T19:01:07.882Z,18.28
2018-06-04T19:04:12.860Z,18.25
2018-06-04T19:07:18.040Z,18.22
2018-06-04T19:10:22.885Z,18.18
2018-06-04T19:13:28.061Z,18.15
2018-06-04T19:16:33.473Z,18.13
2018-06-04T19:19:38.359Z,18.10
2018-06-04T19:22:43.552Z,18.06
2018-06-04T19:25:49.398Z,18.03
2018-06-04T19:28:55.217Z,17.98
2018-06-04T19:32:00.869Z,17.94
2018-06-04T19:35:06.269Z,17.92
2018-06-04T19:38:11.418Z,17.88
2018-06-04T19:41:16.593Z,17.85
2018-06-04T19:44:21.757Z,17.83
2018-06-04T19:47:27.301Z,17.80
2018-06-04T19:50:33.677Z,17.76
2018-06-04T19:53:39.306Z,17.74
2018-06-04T19:56:45.101Z,17.69
2018-06-04T19:59:51.233Z,17.65
2018-06-04T20:02:56.109Z,17.61
2018-06-04T20:06:01.717Z,17.57
2018-06-04T20:09:09.767Z,17.54
2018-06-04T20:12:15.190Z,17.53
2018-06-04T20:15:21.785Z,17.49
2018-06-04T20:18:26.897Z,17.45
2018-06-04T20:21:33.437Z,17.42
2018-06-04T20:24:38.645Z,17.37
2018-06-04T20:27:43.770Z,17.34
2018-06-04T20:30:49.422Z,17.30
2018-06-04T20:33:54.568Z,17.27
2018-06-04T20:36:59.392Z,17.24
2018-06-04T20:40:04.206Z,17.21
2018-06-04T20:43:09.558Z,17.17
2018-06-04T20:46:15.382Z,17.17
2018-06-04T20:49:20.797Z,17.13
2018-06-04T20:52:27.549Z,17.11
2018-06-04T20:55:32.806Z,17.10
2018-06-04T20:58:37.658Z,17.10
2018-06-04T21:01:42.935Z,17.08
2018-06-04T21:04:48.629Z,17.07
2018-06-04T21:07:53.416Z,17.07
2018-06-04T21:10:58.766Z,17.03
2018-06-04T21:14:05.092Z,17.03
2018-06-04T21:17:10.518Z,17.03
2018-06-04T21:20:16.121Z,17.01
2018-06-04T21:23:20.937Z,17.00
2018-06-04T21:26:31.235Z,16.98
2018-06-04T21:29:37.004Z,16.98
2018-06-04T21:32:42.992Z,16.98
2018-06-04T21:35:48.232Z,16.96
2018-06-04T21:38:53.334Z,16.95
2018-06-04T21:41:58.739Z,16.95
2018-06-04T21:45:03.983Z,16.92
2018-06-04T21:48:09.676Z,16.92
2018-06-04T21:51:14.545Z,16.90
2018-06-04T21:54:19.381Z,16.90
2018-06-04T21:57:24.721Z,16.89
2018-06-04T22:00:29.800Z,16.87
2018-06-04T22:03:34.623Z,16.87
2018-06-04T22:06:40.565Z,16.86
2018-06-04T22:09:46.561Z,16.83
2018-06-04T22:12:51.587Z,16.83
2018-06-04T22:15:56.399Z,16.82
2018-06-04T22:19:01.720Z,16.81
2018-06-04T22:22:06.581Z,16.79
2018-06-04T22:25:11.441Z,16.79
2018-06-04T22:28:17.273Z,16.79
2018-06-04T22:31:22.921Z,16.78
2018-06-04T22:34:28.053Z,16.77
2018-06-04T22:37:34.165Z,16.77
2018-06-04T22:40:39.578Z,16.74
2018-06-04T22:43:45.267Z,16.73
2018-06-04T22:46:50.985Z,16.69
2018-06-04T22:49:56.103Z,16.69
2018-06-04T22:53:01.259Z,16.68
2018-06-04T22:56:07.204Z,16.65
2018-06-04T22:59:13.081Z,16.63
2018-06-04T23:02:18.893Z,16.56
2018-06-04T23:05:24.115Z,16.56
2018-06-04T23:08:30.285Z,16.49
2018-06-04T23:11:35.553Z,16.46
2018-06-04T23:14:40.690Z,16.38
2018-06-04T23:17:47.032Z,16.34
2018-06-04T23:20:52.546Z,16.30
2018-06-04T23:23:57.667Z,16.26
2018-06-04T23:27:03.280Z,16.21
2018-06-04T23:30:09.124Z,16.13
2018-06-04T23:33:14.249Z,16.10
2018-06-04T23:36:19.054Z,16.03
2018-06-04T23:39:25.027Z,16.00
2018-06-04T23:42:30.810Z,15.93
2018-06-04T23:45:35.889Z,15.90
2018-06-04T23:48:41.941Z,15.84
2018-06-04T23:51:47.889Z,15.78
2018-06-04T23:54:53.943Z,15.74
2018-06-04T23:57:59.012Z,15.64
